sensor_id;sensor_type;location;lat;lon;timestamp;P1;durP1;ratioP1;P2;durP2;ratioP2
46348;SDS011;32057;47.830;19.046;2022-08-25T00:01:59;1.58;;;1.50;;
46348;SDS011;32057;47.830;19.046;2022-08-25T00:04:28;3.13;;;2.05;;
46348;SDS011;32057;47.830;19.046;2022-08-25T00:06:54;4.05;;;1.92;;
46348;SDS011;32057;47.830;19.046;2022-08-25T00:09:21;5.00;;;2.20;;
46348;SDS011;32057;47.830;19.046;2022-08-25T00:11:49;2.35;;;1.83;;
46348;SDS011;32057;47.830;19.046;2022-08-25T00:14:18;3.42;;;2.15;;
46348;SDS011;32057;47.830;19.046;2022-08-25T00:16:52;2.40;;;2.20;;
46348;SDS011;32057;47.830;19.046;2022-08-25T00:19:21;3.70;;;2.17;;
46348;SDS011;32057;47.830;19.046;2022-08-25T00:21:51;4.68;;;2.03;;
46348;SDS011;32057;47.830;19.046;2022-08-25T00:24:18;1.67;;;1.58;;
46348;SDS011;32057;47.830;19.046;2022-08-25T00:26:46;2.83;;;2.45;;
46348;SDS011;32057;47.830;19.046;2022-08-25T00:29:13;4.30;;;2.45;;
46348;SDS011;32057;47.830;19.046;2022-08-25T00:31:39;2.95;;;2.13;;
46348;SDS011;32057;47.830;19.046;2022-08-25T00:34:11;3.40;;;2.33;;
46348;SDS011;32057;47.830;19.046;2022-08-25T00:36:42;5.00;;;2.85;;
46348;SDS011;32057;47.830;19.046;2022-08-25T00:39:08;3.30;;;2.35;;
46348;SDS011;32057;47.830;19.046;2022-08-25T00:41:34;3.10;;;2.35;;
46348;SDS011;32057;47.830;19.046;2022-08-25T00:44:02;2.35;;;2.15;;
46348;SDS011;32057;47.830;19.046;2022-08-25T00:46:32;2.10;;;1.90;;
46348;SDS011;32057;47.830;19.046;2022-08-25T00:49:07;2.65;;;1.75;;
46348;SDS011;32057;47.830;19.046;2022-08-25T00:54:23;2.85;;;2.15;;
46348;SDS011;32057;47.830;19.046;2022-08-25T00:56:54;2.95;;;2.70;;
46348;SDS011;32057;47.830;19.046;2022-08-25T00:59:20;2.60;;;2.28;;
46348;SDS011;32057;47.830;19.046;2022-08-25T01:01:50;4.90;;;2.58;;
46348;SDS011;32057;47.830;19.046;2022-08-25T01:04:16;2.28;;;1.92;;
46348;SDS011;32057;47.830;19.046;2022-08-25T01:06:43;2.05;;;1.85;;
46348;SDS011;32057;47.830;19.046;2022-08-25T01:09:10;4.75;;;2.58;;
46348;SDS011;32057;47.830;19.046;2022-08-25T01:11:38;4.03;;;2.33;;
46348;SDS011;32057;47.830;19.046;2022-08-25T01:14:05;2.78;;;2.33;;
46348;SDS011;32057;47.830;19.046;2022-08-25T01:16:33;3.38;;;2.42;;
46348;SDS011;32057;47.830;19.046;2022-08-25T01:19:00;2.55;;;2.13;;
46348;SDS011;32057;47.830;19.046;2022-08-25T01:21:28;3.08;;;2.47;;
46348;SDS011;32057;47.830;19.046;2022-08-25T01:23:55;5.03;;;2.42;;
46348;SDS011;32057;47.830;19.046;2022-08-25T01:26:26;2.67;;;2.30;;
46348;SDS011;32057;47.830;19.046;2022-08-25T01:28:55;3.00;;;1.88;;
46348;SDS011;32057;47.830;19.046;2022-08-25T01:31:40;2.00;;;1.80;;
46348;SDS011;32057;47.830;19.046;2022-08-25T01:34:06;4.18;;;2.63;;
46348;SDS011;32057;47.830;19.046;2022-08-25T01:36:34;3.22;;;2.92;;
46348;SDS011;32057;47.830;19.046;2022-08-25T01:39:01;2.67;;;2.35;;
46348;SDS011;32057;47.830;19.046;2022-08-25T01:41:35;2.55;;;2.35;;
46348;SDS011;32057;47.830;19.046;2022-08-25T01:44:10;2.92;;;2.33;;
46348;SDS011;32057;47.830;19.046;2022-08-25T01:46:35;3.85;;;2.20;;
46348;SDS011;32057;47.830;19.046;2022-08-25T01:49:01;1.83;;;1.73;;
46348;SDS011;32057;47.830;19.046;2022-08-25T01:51:28;3.03;;;2.20;;
46348;SDS011;32057;47.830;19.046;2022-08-25T01:54:01;3.47;;;2.30;;
46348;SDS011;32057;47.830;19.046;2022-08-25T01:56:27;2.45;;;2.13;;
46348;SDS011;32057;47.830;19.046;2022-08-25T01:58:52;4.22;;;1.90;;
46348;SDS011;32057;47.830;19.046;2022-08-25T02:01:19;5.85;;;2.13;;
46348;SDS011;32057;47.830;19.046;2022-08-25T02:03:47;2.78;;;2.58;;
46348;SDS011;32057;47.830;19.046;2022-08-25T02:06:15;5.85;;;2.47;;
46348;SDS011;32057;47.830;19.046;2022-08-25T02:08:49;3.47;;;2.20;;
46348;SDS011;32057;47.830;19.046;2022-08-25T02:11:15;2.60;;;2.40;;
46348;SDS011;32057;47.830;19.046;2022-08-25T02:13:41;1.95;;;1.85;;
46348;SDS011;32057;47.830;19.046;2022-08-25T02:16:07;3.13;;;2.38;;
46348;SDS011;32057;47.830;19.046;2022-08-25T02:18:34;6.93;;;2.88;;
46348;SDS011;32057;47.830;19.046;2022-08-25T02:20:59;4.68;;;2.30;;
46348;SDS011;32057;47.830;19.046;2022-08-25T02:23:25;4.00;;;2.25;;
46348;SDS011;32057;47.830;19.046;2022-08-25T02:25:51;2.40;;;2.20;;
46348;SDS011;32057;47.830;19.046;2022-08-25T02:28:17;2.28;;;1.83;;
46348;SDS011;32057;47.830;19.046;2022-08-25T02:30:42;3.20;;;2.72;;
46348;SDS011;32057;47.830;19.046;2022-08-25T02:33:08;5.38;;;3.42;;
46348;SDS011;32057;47.830;19.046;2022-08-25T02:35:34;3.58;;;2.88;;
46348;SDS011;32057;47.830;19.046;2022-08-25T02:38:00;3.25;;;2.63;;
46348;SDS011;32057;47.830;19.046;2022-08-25T02:40:26;4.78;;;2.53;;
46348;SDS011;32057;47.830;19.046;2022-08-25T02:42:52;3.50;;;3.13;;
46348;SDS011;32057;47.830;19.046;2022-08-25T02:45:19;2.92;;;2.42;;
46348;SDS011;32057;47.830;19.046;2022-08-25T02:47:45;5.85;;;2.13;;
46348;SDS011;32057;47.830;19.046;2022-08-25T02:50:12;3.60;;;2.63;;
46348;SDS011;32057;47.830;19.046;2022-08-25T02:52:37;2.58;;;2.25;;
46348;SDS011;32057;47.830;19.046;2022-08-25T02:55:05;2.60;;;2.40;;
46348;SDS011;32057;47.830;19.046;2022-08-25T02:57:33;4.78;;;2.45;;
46348;SDS011;32057;47.830;19.046;2022-08-25T02:59:59;2.90;;;2.60;;
46348;SDS011;32057;47.830;19.046;2022-08-25T03:02:25;3.00;;;2.65;;
46348;SDS011;32057;47.830;19.046;2022-08-25T03:04:52;6.85;;;2.80;;
46348;SDS011;32057;47.830;19.046;2022-08-25T03:07:18;4.72;;;2.25;;
46348;SDS011;32057;47.830;19.046;2022-08-25T03:09:44;3.92;;;2.92;;
46348;SDS011;32057;47.830;19.046;2022-08-25T03:12:10;3.33;;;2.47;;
46348;SDS011;32057;47.830;19.046;2022-08-25T03:14:36;4.20;;;2.65;;
46348;SDS011;32057;47.830;19.046;2022-08-25T03:17:04;6.85;;;2.88;;
46348;SDS011;32057;47.830;19.046;2022-08-25T03:19:32;9.27;;;3.33;;
46348;SDS011;32057;47.830;19.046;2022-08-25T03:21:58;3.00;;;2.33;;
46348;SDS011;32057;47.830;19.046;2022-08-25T03:24:24;3.65;;;2.40;;
46348;SDS011;32057;47.830;19.046;2022-08-25T03:26:50;2.65;;;2.45;;
46348;SDS011;32057;47.830;19.046;2022-08-25T03:29:23;4.75;;;3.35;;
46348;SDS011;32057;47.830;19.046;2022-08-25T03:31:55;2.60;;;2.13;;
46348;SDS011;32057;47.830;19.046;2022-08-25T03:34:25;3.22;;;2.92;;
46348;SDS011;32057;47.830;19.046;2022-08-25T03:36:52;2.75;;;2.50;;
46348;SDS011;32057;47.830;19.046;2022-08-25T03:39:19;2.92;;;2.42;;
46348;SDS011;32057;47.830;19.046;2022-08-25T03:41:46;4.03;;;2.97;;
46348;SDS011;32057;47.830;19.046;2022-08-25T03:44:12;4.38;;;2.65;;
46348;SDS011;32057;47.830;19.046;2022-08-25T03:46:41;2.80;;;2.28;;
46348;SDS011;32057;47.830;19.046;2022-08-25T03:49:09;2.38;;;2.17;;
46348;SDS011;32057;47.830;19.046;2022-08-25T03:51:39;3.90;;;2.80;;
46348;SDS011;32057;47.830;19.046;2022-08-25T03:54:07;2.95;;;2.65;;
46348;SDS011;32057;47.830;19.046;2022-08-25T03:56:34;19.48;;;4.10;;
46348;SDS011;32057;47.830;19.046;2022-08-25T03:59:00;2.60;;;2.28;;
46348;SDS011;32057;47.830;19.046;2022-08-25T04:01:25;2.10;;;1.90;;
46348;SDS011;32057;47.830;19.046;2022-08-25T04:03:51;4.95;;;2.97;;
46348;SDS011;32057;47.830;19.046;2022-08-25T04:06:17;2.55;;;2.35;;
46348;SDS011;32057;47.830;19.046;2022-08-25T04:08:44;5.60;;;3.53;;
46348;SDS011;32057;47.830;19.046;2022-08-25T04:11:14;4.30;;;2.83;;
46348;SDS011;32057;47.830;19.046;2022-08-25T04:13:42;3.33;;;2.57;;
46348;SDS011;32057;47.830;19.046;2022-08-25T04:16:16;4.45;;;3.45;;
46348;SDS011;32057;47.830;19.046;2022-08-25T04:18:45;3.13;;;2.88;;
46348;SDS011;32057;47.830;19.046;2022-08-25T04:21:11;5.78;;;3.10;;
46348;SDS011;32057;47.830;19.046;2022-08-25T04:23:38;2.88;;;2.30;;
46348;SDS011;32057;47.830;19.046;2022-08-25T04:26:13;2.60;;;2.30;;
46348;SDS011;32057;47.830;19.046;2022-08-25T04:28:40;4.20;;;2.35;;
46348;SDS011;32057;47.830;19.046;2022-08-25T04:31:07;9.07;;;2.85;;
46348;SDS011;32057;47.830;19.046;2022-08-25T04:33:34;2.65;;;2.45;;
46348;SDS011;32057;47.830;19.046;2022-08-25T04:36:01;4.40;;;2.80;;
46348;SDS011;32057;47.830;19.046;2022-08-25T04:38:27;5.53;;;3.90;;
46348;SDS011;32057;47.830;19.046;2022-08-25T04:40:56;4.00;;;2.33;;
46348;SDS011;32057;47.830;19.046;2022-08-25T04:43:23;2.58;;;2.38;;
46348;SDS011;32057;47.830;19.046;2022-08-25T04:45:48;4.22;;;2.28;;
46348;SDS011;32057;47.830;19.046;2022-08-25T04:48:14;3.15;;;2.35;;
46348;SDS011;32057;47.830;19.046;2022-08-25T04:50:39;8.88;;;4.22;;
46348;SDS011;32057;47.830;19.046;2022-08-25T04:53:05;3.78;;;2.50;;
46348;SDS011;32057;47.830;19.046;2022-08-25T04:55:30;4.53;;;2.97;;
46348;SDS011;32057;47.830;19.046;2022-08-25T04:57:55;5.05;;;2.83;;
46348;SDS011;32057;47.830;19.046;2022-08-25T05:00:21;7.10;;;2.67;;
46348;SDS011;32057;47.830;19.046;2022-08-25T05:02:47;4.68;;;2.58;;
46348;SDS011;32057;47.830;19.046;2022-08-25T05:05:12;2.30;;;2.10;;
46348;SDS011;32057;47.830;19.046;2022-08-25T05:07:38;3.75;;;2.50;;
46348;SDS011;32057;47.830;19.046;2022-08-25T05:10:03;2.85;;;2.13;;
46348;SDS011;32057;47.830;19.046;2022-08-25T05:12:29;8.90;;;3.17;;
46348;SDS011;32057;47.830;19.046;2022-08-25T05:14:55;3.75;;;3.45;;
46348;SDS011;32057;47.830;19.046;2022-08-25T05:17:40;3.58;;;2.30;;
46348;SDS011;32057;47.830;19.046;2022-08-25T05:20:06;5.97;;;1.98;;
46348;SDS011;32057;47.830;19.046;2022-08-25T05:22:32;3.85;;;3.15;;
46348;SDS011;32057;47.830;19.046;2022-08-25T05:24:57;3.30;;;2.80;;
46348;SDS011;32057;47.830;19.046;2022-08-25T05:27:22;3.97;;;2.22;;
46348;SDS011;32057;47.830;19.046;2022-08-25T05:29:48;2.45;;;2.25;;
46348;SDS011;32057;47.830;19.046;2022-08-25T05:32:13;2.95;;;2.75;;
46348;SDS011;32057;47.830;19.046;2022-08-25T05:34:39;3.25;;;2.72;;
46348;SDS011;32057;47.830;19.046;2022-08-25T05:37:04;4.88;;;3.28;;
46348;SDS011;32057;47.830;19.046;2022-08-25T05:39:29;6.30;;;2.42;;
46348;SDS011;32057;47.830;19.046;2022-08-25T05:41:57;2.95;;;2.38;;
46348;SDS011;32057;47.830;19.046;2022-08-25T05:44:22;5.18;;;2.95;;
46348;SDS011;32057;47.830;19.046;2022-08-25T05:46:48;2.83;;;2.63;;
46348;SDS011;32057;47.830;19.046;2022-08-25T05:49:15;2.75;;;2.25;;
46348;SDS011;32057;47.830;19.046;2022-08-25T05:51:40;6.47;;;2.67;;
46348;SDS011;32057;47.830;19.046;2022-08-25T05:54:06;3.90;;;2.90;;
46348;SDS011;32057;47.830;19.046;2022-08-25T05:56:31;3.05;;;2.75;;
46348;SDS011;32057;47.830;19.046;2022-08-25T05:58:57;3.97;;;2.13;;
46348;SDS011;32057;47.830;19.046;2022-08-25T06:01:24;2.28;;;2.08;;
46348;SDS011;32057;47.830;19.046;2022-08-25T06:04:09;2.33;;;2.13;;
46348;SDS011;32057;47.830;19.046;2022-08-25T06:06:35;4.35;;;2.53;;
46348;SDS011;32057;47.830;19.046;2022-08-25T06:09:00;2.97;;;2.45;;
46348;SDS011;32057;47.830;19.046;2022-08-25T06:11:26;6.15;;;2.45;;
46348;SDS011;32057;47.830;19.046;2022-08-25T06:13:52;7.50;;;3.53;;
46348;SDS011;32057;47.830;19.046;2022-08-25T06:16:17;3.20;;;2.63;;
46348;SDS011;32057;47.830;19.046;2022-08-25T06:18:43;2.50;;;1.90;;
46348;SDS011;32057;47.830;19.046;2022-08-25T06:21:12;3.88;;;3.33;;
46348;SDS011;32057;47.830;19.046;2022-08-25T06:23:39;4.60;;;2.65;;
46348;SDS011;32057;47.830;19.046;2022-08-25T06:26:04;7.72;;;4.10;;
46348;SDS011;32057;47.830;19.046;2022-08-25T06:28:31;4.30;;;2.85;;
46348;SDS011;32057;47.830;19.046;2022-08-25T06:30:57;2.90;;;2.50;;
46348;SDS011;32057;47.830;19.046;2022-08-25T06:33:24;2.13;;;1.85;;
46348;SDS011;32057;47.830;19.046;2022-08-25T06:35:51;3.40;;;2.15;;
46348;SDS011;32057;47.830;19.046;2022-08-25T06:38:18;2.05;;;1.80;;
46348;SDS011;32057;47.830;19.046;2022-08-25T06:40:45;1.90;;;1.80;;
46348;SDS011;32057;47.830;19.046;2022-08-25T06:43:12;8.65;;;2.15;;
46348;SDS011;32057;47.830;19.046;2022-08-25T06:45:37;2.65;;;2.08;;
46348;SDS011;32057;47.830;19.046;2022-08-25T06:48:03;4.22;;;1.95;;
46348;SDS011;32057;47.830;19.046;2022-08-25T06:50:28;7.28;;;2.42;;
46348;SDS011;32057;47.830;19.046;2022-08-25T06:52:54;3.33;;;2.15;;
46348;SDS011;32057;47.830;19.046;2022-08-25T06:55:19;4.85;;;2.17;;
46348;SDS011;32057;47.830;19.046;2022-08-25T06:57:44;2.38;;;2.17;;
46348;SDS011;32057;47.830;19.046;2022-08-25T07:00:10;2.78;;;2.55;;
46348;SDS011;32057;47.830;19.046;2022-08-25T07:02:36;4.97;;;2.03;;
46348;SDS011;32057;47.830;19.046;2022-08-25T07:05:02;3.75;;;2.63;;
46348;SDS011;32057;47.830;19.046;2022-08-25T07:07:29;2.63;;;2.35;;
46348;SDS011;32057;47.830;19.046;2022-08-25T07:09:54;2.40;;;1.90;;
46348;SDS011;32057;47.830;19.046;2022-08-25T07:12:20;5.50;;;2.10;;
46348;SDS011;32057;47.830;19.046;2022-08-25T07:14:46;2.78;;;2.10;;
46348;SDS011;32057;47.830;19.046;2022-08-25T07:17:11;10.48;;;3.03;;
46348;SDS011;32057;47.830;19.046;2022-08-25T07:19:37;1.83;;;1.73;;
46348;SDS011;32057;47.830;19.046;2022-08-25T07:22:02;4.82;;;2.97;;
46348;SDS011;32057;47.830;19.046;2022-08-25T07:24:28;4.72;;;2.35;;
46348;SDS011;32057;47.830;19.046;2022-08-25T07:26:53;2.53;;;1.88;;
46348;SDS011;32057;47.830;19.046;2022-08-25T07:29:20;6.75;;;2.50;;
46348;SDS011;32057;47.830;19.046;2022-08-25T07:31:47;3.85;;;1.67;;
46348;SDS011;32057;47.830;19.046;2022-08-25T07:34:13;2.88;;;2.05;;
46348;SDS011;32057;47.830;19.046;2022-08-25T07:37:05;7.88;;;2.55;;
46348;SDS011;32057;47.830;19.046;2022-08-25T07:39:31;3.35;;;2.55;;
46348;SDS011;32057;47.830;19.046;2022-08-25T07:41:57;2.45;;;1.98;;
46348;SDS011;32057;47.830;19.046;2022-08-25T07:44:24;6.07;;;2.42;;
46348;SDS011;32057;47.830;19.046;2022-08-25T07:46:50;7.25;;;2.25;;
46348;SDS011;32057;47.830;19.046;2022-08-25T07:49:17;9.75;;;3.13;;
46348;SDS011;32057;47.830;19.046;2022-08-25T07:51:44;4.57;;;1.95;;
46348;SDS011;32057;47.830;19.046;2022-08-25T07:54:09;2.65;;;2.45;;
46348;SDS011;32057;47.830;19.046;2022-08-25T07:56:35;5.40;;;2.15;;
46348;SDS011;32057;47.830;19.046;2022-08-25T07:59:00;4.18;;;2.30;;
46348;SDS011;32057;47.830;19.046;2022-08-25T08:01:26;2.72;;;1.92;;
46348;SDS011;32057;47.830;19.046;2022-08-25T08:03:52;3.75;;;2.47;;
46348;SDS011;32057;47.830;19.046;2022-08-25T08:06:19;3.20;;;1.80;;
46348;SDS011;32057;47.830;19.046;2022-08-25T08:08:47;1.95;;;1.48;;
46348;SDS011;32057;47.830;19.046;2022-08-25T08:11:18;4.47;;;2.05;;
46348;SDS011;32057;47.830;19.046;2022-08-25T08:13:50;4.85;;;2.60;;
46348;SDS011;32057;47.830;19.046;2022-08-25T08:16:17;6.93;;;2.33;;
46348;SDS011;32057;47.830;19.046;2022-08-25T08:18:44;3.10;;;2.72;;
46348;SDS011;32057;47.830;19.046;2022-08-25T08:21:15;4.03;;;2.20;;
46348;SDS011;32057;47.830;19.046;2022-08-25T08:23:46;3.47;;;2.42;;
46348;SDS011;32057;47.830;19.046;2022-08-25T08:26:13;5.55;;;2.67;;
46348;SDS011;32057;47.830;19.046;2022-08-25T08:28:38;3.30;;;2.35;;
46348;SDS011;32057;47.830;19.046;2022-08-25T08:31:04;1.80;;;1.50;;
46348;SDS011;32057;47.830;19.046;2022-08-25T08:33:29;3.47;;;2.85;;
46348;SDS011;32057;47.830;19.046;2022-08-25T08:35:59;1.98;;;1.85;;
46348;SDS011;32057;47.830;19.046;2022-08-25T08:38:26;2.10;;;1.85;;
46348;SDS011;32057;47.830;19.046;2022-08-25T08:58:10;2.65;;;1.17;;
46348;SDS011;32057;47.830;19.046;2022-08-25T09:00:47;3.92;;;1.08;;
46348;SDS011;32057;47.830;19.046;2022-08-25T09:03:33;1.38;;;1.27;;
46348;SDS011;32057;47.830;19.046;2022-08-25T09:06:08;3.17;;;2.28;;
46348;SDS011;32057;47.830;19.046;2022-08-25T09:08:41;2.50;;;1.33;;
46348;SDS011;32057;47.830;19.046;2022-08-25T09:30:23;1.35;;;1.20;;
46348;SDS011;32057;47.830;19.046;2022-08-25T09:32:50;2.92;;;1.70;;
46348;SDS011;32057;47.830;19.046;2022-08-25T09:35:20;1.45;;;1.00;;
46348;SDS011;32057;47.830;19.046;2022-08-25T09:40:24;2.08;;;1.65;;
46348;SDS011;32057;47.830;19.046;2022-08-25T09:42:53;4.40;;;1.40;;
46348;SDS011;32057;47.830;19.046;2022-08-25T09:48:27;1.83;;;1.20;;
46348;SDS011;32057;47.830;19.046;2022-08-25T09:50:59;2.50;;;1.88;;
46348;SDS011;32057;47.830;19.046;2022-08-25T09:53:27;10.75;;;1.83;;
46348;SDS011;32057;47.830;19.046;2022-08-25T09:56:02;2.03;;;1.73;;
46348;SDS011;32057;47.830;19.046;2022-08-25T09:58:31;1.88;;;1.13;;
46348;SDS011;32057;47.830;19.046;2022-08-25T10:03:26;1.63;;;1.40;;
46348;SDS011;32057;47.830;19.046;2022-08-25T10:06:01;1.73;;;1.63;;
46348;SDS011;32057;47.830;19.046;2022-08-25T10:16:48;1.63;;;1.50;;
46348;SDS011;32057;47.830;19.046;2022-08-25T10:21:46;2.93;;;1.50;;
46348;SDS011;32057;47.830;19.046;2022-08-25T10:24:27;1.30;;;1.20;;
46348;SDS011;32057;47.830;19.046;2022-08-25T10:26:54;4.50;;;2.25;;
46348;SDS011;32057;47.830;19.046;2022-08-25T10:32:21;4.97;;;1.85;;
46348;SDS011;32057;47.830;19.046;2022-08-25T10:34:52;1.17;;;1.17;;
46348;SDS011;32057;47.830;19.046;2022-08-25T10:37:27;5.28;;;1.92;;
46348;SDS011;32057;47.830;19.046;2022-08-25T10:45:22;2.03;;;1.55;;
46348;SDS011;32057;47.830;19.046;2022-08-25T10:53:28;3.28;;;1.70;;
46348;SDS011;32057;47.830;19.046;2022-08-25T10:58:50;2.05;;;1.55;;
46348;SDS011;32057;47.830;19.046;2022-08-25T11:09:44;1.55;;;1.08;;
46348;SDS011;32057;47.830;19.046;2022-08-25T11:12:33;2.05;;;1.30;;
46348;SDS011;32057;47.830;19.046;2022-08-25T11:15:46;3.17;;;1.40;;
46348;SDS011;32057;47.830;19.046;2022-08-25T11:18:02;0.90;;;0.90;;
46348;SDS011;32057;47.830;19.046;2022-08-25T11:20:39;1.77;;;1.15;;
46348;SDS011;32057;47.830;19.046;2022-08-25T11:23:19;1.30;;;0.95;;
46348;SDS011;32057;47.830;19.046;2022-08-25T11:25:53;0.75;;;0.70;;
46348;SDS011;32057;47.830;19.046;2022-08-25T11:31:11;1.33;;;1.17;;
46348;SDS011;32057;47.830;19.046;2022-08-25T11:33:39;1.17;;;1.02;;
46348;SDS011;32057;47.830;19.046;2022-08-25T11:46:37;3.03;;;1.27;;
46348;SDS011;32057;47.830;19.046;2022-08-25T11:57:39;3.25;;;1.77;;
46348;SDS011;32057;47.830;19.046;2022-08-25T12:00:09;1.58;;;1.00;;
46348;SDS011;32057;47.830;19.046;2022-08-25T12:02:43;0.83;;;0.83;;
46348;SDS011;32057;47.830;19.046;2022-08-25T12:13:50;1.27;;;1.15;;
46348;SDS011;32057;47.830;19.046;2022-08-25T12:21:49;1.42;;;1.17;;
46348;SDS011;32057;47.830;19.046;2022-08-25T12:24:15;4.30;;;1.20;;
46348;SDS011;32057;47.830;19.046;2022-08-25T12:26:58;1.73;;;1.10;;
46348;SDS011;32057;47.830;19.046;2022-08-25T12:29:41;5.03;;;1.55;;
46348;SDS011;32057;47.830;19.046;2022-08-25T12:32:17;4.57;;;1.45;;
46348;SDS011;32057;47.830;19.046;2022-08-25T12:35:10;1.00;;;0.98;;
46348;SDS011;32057;47.830;19.046;2022-08-25T12:38:09;2.92;;;1.63;;
46348;SDS011;32057;47.830;19.046;2022-08-25T12:45:37;1.90;;;1.40;;
46348;SDS011;32057;47.830;19.046;2022-08-25T12:48:52;6.10;;;2.58;;
46348;SDS011;32057;47.830;19.046;2022-08-25T12:50:59;1.60;;;1.50;;
46348;SDS011;32057;47.830;19.046;2022-08-25T12:53:41;0.90;;;0.90;;
46348;SDS011;32057;47.830;19.046;2022-08-25T12:58:54;1.00;;;0.80;;
46348;SDS011;32057;47.830;19.046;2022-08-25T13:10:11;3.65;;;3.00;;
46348;SDS011;32057;47.830;19.046;2022-08-25T13:16:01;2.25;;;1.08;;
46348;SDS011;32057;47.830;19.046;2022-08-25T13:18:39;1.67;;;1.45;;
46348;SDS011;32057;47.830;19.046;2022-08-25T13:21:07;1.13;;;1.02;;
46348;SDS011;32057;47.830;19.046;2022-08-25T13:23:46;1.70;;;1.60;;
46348;SDS011;32057;47.830;19.046;2022-08-25T13:26:15;1.50;;;1.40;;
46348;SDS011;32057;47.830;19.046;2022-08-25T13:28:49;4.78;;;1.35;;
46348;SDS011;32057;47.830;19.046;2022-08-25T13:31:26;1.10;;;1.00;;
46348;SDS011;32057;47.830;19.046;2022-08-25T13:33:57;1.30;;;1.20;;
46348;SDS011;32057;47.830;19.046;2022-08-25T13:36:30;1.40;;;1.17;;
46348;SDS011;32057;47.830;19.046;2022-08-25T13:39:19;1.20;;;1.10;;
46348;SDS011;32057;47.830;19.046;2022-08-25T13:41:47;4.70;;;1.30;;
46348;SDS011;32057;47.830;19.046;2022-08-25T13:44:15;2.03;;;0.98;;
46348;SDS011;32057;47.830;19.046;2022-08-25T13:46:42;1.35;;;1.23;;
46348;SDS011;32057;47.830;19.046;2022-08-25T13:49:10;6.20;;;1.70;;
46348;SDS011;32057;47.830;19.046;2022-08-25T13:51:36;2.58;;;1.23;;
46348;SDS011;32057;47.830;19.046;2022-08-25T13:54:04;4.28;;;1.33;;
46348;SDS011;32057;47.830;19.046;2022-08-25T13:59:00;1.20;;;1.00;;
46348;SDS011;32057;47.830;19.046;2022-08-25T14:01:29;1.42;;;1.13;;
46348;SDS011;32057;47.830;19.046;2022-08-25T14:04:19;0.85;;;0.85;;
46348;SDS011;32057;47.830;19.046;2022-08-25T14:06:52;1.52;;;1.08;;
46348;SDS011;32057;47.830;19.046;2022-08-25T14:10:07;4.78;;;2.05;;
46348;SDS011;32057;47.830;19.046;2022-08-25T14:20:26;1.83;;;1.25;;
46348;SDS011;32057;47.830;19.046;2022-08-25T14:22:59;5.50;;;1.33;;
46348;SDS011;32057;47.830;19.046;2022-08-25T14:25:30;1.25;;;0.98;;
46348;SDS011;32057;47.830;19.046;2022-08-25T14:27:56;3.13;;;1.27;;
46348;SDS011;32057;47.830;19.046;2022-08-25T14:30:28;0.55;;;0.55;;
46348;SDS011;32057;47.830;19.046;2022-08-25T14:32:55;3.75;;;1.67;;
46348;SDS011;32057;47.830;19.046;2022-08-25T14:35:20;5.53;;;1.25;;
46348;SDS011;32057;47.830;19.046;2022-08-25T14:37:46;0.70;;;0.70;;
46348;SDS011;32057;47.830;19.046;2022-08-25T14:40:13;3.03;;;1.42;;
46348;SDS011;32057;47.830;19.046;2022-08-25T14:42:41;2.08;;;1.10;;
46348;SDS011;32057;47.830;19.046;2022-08-25T14:45:06;1.83;;;1.30;;
46348;SDS011;32057;47.830;19.046;2022-08-25T14:47:33;3.33;;;1.05;;
46348;SDS011;32057;47.830;19.046;2022-08-25T14:49:59;1.50;;;1.40;;
46348;SDS011;32057;47.830;19.046;2022-08-25T14:52:25;2.45;;;1.02;;
46348;SDS011;32057;47.830;19.046;2022-08-25T14:54:52;1.33;;;1.23;;
46348;SDS011;32057;47.830;19.046;2022-08-25T14:57:18;2.90;;;1.80;;
46348;SDS011;32057;47.830;19.046;2022-08-25T14:59:44;2.58;;;0.82;;
46348;SDS011;32057;47.830;19.046;2022-08-25T15:02:11;2.65;;;1.75;;
46348;SDS011;32057;47.830;19.046;2022-08-25T15:07:10;3.50;;;1.08;;
46348;SDS011;32057;47.830;19.046;2022-08-25T15:09:55;1.63;;;1.52;;
46348;SDS011;32057;47.830;19.046;2022-08-25T15:12:20;5.43;;;2.58;;
46348;SDS011;32057;47.830;19.046;2022-08-25T15:14:46;1.45;;;1.35;;
46348;SDS011;32057;47.830;19.046;2022-08-25T15:17:12;2.05;;;1.10;;
46348;SDS011;32057;47.830;19.046;2022-08-25T15:19:38;1.17;;;1.00;;
46348;SDS011;32057;47.830;19.046;2022-08-25T15:22:04;1.80;;;1.70;;
46348;SDS011;32057;47.830;19.046;2022-08-25T15:24:29;2.22;;;1.40;;
46348;SDS011;32057;47.830;19.046;2022-08-25T15:26:59;3.35;;;1.30;;
46348;SDS011;32057;47.830;19.046;2022-08-25T15:29:28;2.92;;;1.40;;
46348;SDS011;32057;47.830;19.046;2022-08-25T15:31:55;1.35;;;1.25;;
46348;SDS011;32057;47.830;19.046;2022-08-25T15:34:21;1.45;;;1.33;;
46348;SDS011;32057;47.830;19.046;2022-08-25T15:36:46;1.75;;;1.17;;
46348;SDS011;32057;47.830;19.046;2022-08-25T15:39:13;4.85;;;1.63;;
46348;SDS011;32057;47.830;19.046;2022-08-25T15:41:39;1.75;;;1.45;;
46348;SDS011;32057;47.830;19.046;2022-08-25T15:44:04;1.67;;;1.13;;
46348;SDS011;32057;47.830;19.046;2022-08-25T15:46:31;2.90;;;1.50;;
46348;SDS011;32057;47.830;19.046;2022-08-25T15:48:57;2.10;;;1.13;;
46348;SDS011;32057;47.830;19.046;2022-08-25T15:51:24;1.88;;;1.25;;
46348;SDS011;32057;47.830;19.046;2022-08-25T15:53:50;2.03;;;1.42;;
46348;SDS011;32057;47.830;19.046;2022-08-25T15:56:15;3.63;;;1.85;;
46348;SDS011;32057;47.830;19.046;2022-08-25T15:58:43;1.15;;;1.10;;
46348;SDS011;32057;47.830;19.046;2022-08-25T16:01:13;1.20;;;0.80;;
46348;SDS011;32057;47.830;19.046;2022-08-25T16:03:40;2.13;;;0.98;;
46348;SDS011;32057;47.830;19.046;2022-08-25T16:06:06;1.55;;;1.30;;
46348;SDS011;32057;47.830;19.046;2022-08-25T16:08:32;2.00;;;1.30;;
46348;SDS011;32057;47.830;19.046;2022-08-25T16:10:57;2.80;;;1.45;;
46348;SDS011;32057;47.830;19.046;2022-08-25T16:13:23;3.55;;;1.80;;
46348;SDS011;32057;47.830;19.046;2022-08-25T16:15:49;4.25;;;1.35;;
46348;SDS011;32057;47.830;19.046;2022-08-25T16:18:14;2.55;;;1.30;;
46348;SDS011;32057;47.830;19.046;2022-08-25T16:20:44;2.80;;;1.63;;
46348;SDS011;32057;47.830;19.046;2022-08-25T16:23:11;1.45;;;1.35;;
46348;SDS011;32057;47.830;19.046;2022-08-25T16:25:38;7.38;;;1.77;;
46348;SDS011;32057;47.830;19.046;2022-08-25T16:28:05;4.90;;;2.63;;
46348;SDS011;32057;47.830;19.046;2022-08-25T16:30:33;2.22;;;1.25;;
46348;SDS011;32057;47.830;19.046;2022-08-25T16:32:59;4.40;;;1.85;;
46348;SDS011;32057;47.830;19.046;2022-08-25T16:35:24;6.18;;;2.15;;
46348;SDS011;32057;47.830;19.046;2022-08-25T16:37:50;1.63;;;1.52;;
46348;SDS011;32057;47.830;19.046;2022-08-25T16:40:15;3.05;;;1.58;;
46348;SDS011;32057;47.830;19.046;2022-08-25T16:42:42;4.65;;;1.00;;
46348;SDS011;32057;47.830;19.046;2022-08-25T16:45:09;1.23;;;1.10;;
46348;SDS011;32057;47.830;19.046;2022-08-25T16:47:35;1.63;;;1.40;;
46348;SDS011;32057;47.830;19.046;2022-08-25T16:50:02;2.88;;;1.63;;
46348;SDS011;32057;47.830;19.046;2022-08-25T16:52:30;1.98;;;1.58;;
46348;SDS011;32057;47.830;19.046;2022-08-25T16:55:15;1.52;;;1.40;;
46348;SDS011;32057;47.830;19.046;2022-08-25T16:57:42;2.38;;;1.55;;
46348;SDS011;32057;47.830;19.046;2022-08-25T17:00:11;1.83;;;1.40;;
46348;SDS011;32057;47.830;19.046;2022-08-25T17:02:38;2.33;;;2.08;;
46348;SDS011;32057;47.830;19.046;2022-08-25T17:05:05;3.67;;;1.73;;
46348;SDS011;32057;47.830;19.046;2022-08-25T17:07:32;4.60;;;2.63;;
46348;SDS011;32057;47.830;19.046;2022-08-25T17:09:58;2.35;;;1.70;;
46348;SDS011;32057;47.830;19.046;2022-08-25T17:12:24;1.33;;;1.23;;
46348;SDS011;32057;47.830;19.046;2022-08-25T17:14:50;2.97;;;1.60;;